KPYX

Perryton Ochiltree County Airport

Perryton, Texas, USA
METAR KPYX 212335Z AUTO 00000KT 10SM CLR 31/17 A2995 RMK AO2 T03120173
Observed Flight Rules
Jun-21 @ 23:35 UTC (19 minutes ago) Visual Flight Rules
Visibility Clouds
10 miles
  • Clear skies
Temperatures Readings
Current 31°C / 88°F
Dewpoint 17°C / 63°F
Humidity 43%
Altimeter 29.95" Hg
Pressure 1014 hPa
Elevation 889
METAR KPYX 212335Z AUTO 00000KT 10SM CLR 31/17 A2995 RMK AO2 T03120173
Observed Flight Rules
Jun-21 @ 23:35 UTC
(19 minutes ago)
VFR
Clouds
  • Clear skies
Temperature Dewpoint
31°C / 88°F 17°C / 63°F
Humidity Altimeter Pressure
43% 29.95" Hg 1014 hPa